アスタナ の空港の天気 - METARとTAF

アスタナ国際空港 ( UACC / TSE ) - カザフスタン アスタナ
飛行場実況気象(Metar)
観測時間12/14 12:30 QYZT (12/14 06:30 UTC)
風向・風速南南西 2m/s
視程6000m
天気現象弱い霧雪
全天を覆う雲 雲底高度 120m
気温-12℃
湿度92%
気圧1029hPa
METARUACC 140630Z 21002MPS 170V230 6000 -SG OVC004 M12/M13 Q1029 R22/95//55 NOSIG RMK QBB120 QFE740/0987
過去の天気等 Google飛行場航空写真 Wunderground天気予報

過去48時間のMETAR

飛行場予報(TAF)
発表時間: 12/14 11:00 QYZT (12/14 05:00 UTC)
予報対象時間: 14日12時 QYZT ~ 15日12時 QYZT
風向・風速南 4m/s
視程3000m
天気現象もや
全天の8割程度の雲 雲底高度 90m
14日12時 QYZT ~ 14日15時 QYZT に一時的に
視程500m
天気現象弱い霧雪 氷霧
全天を覆う雲 鉛直視程 60m
14日15時 QYZT から
風向・風速不定 2m/s
視程6000m
全天の4割程度の雲 雲底高度 240m
全天の8割程度の雲 雲底高度 610m
14日15時 QYZT ~ 14日21時 QYZT に一時的に
視程3000m
天気現象弱い雪 もや
全天の8割程度の雲 雲底高度 180m
14日21時 QYZT ~ 14日23時 QYZT に徐々に
風向・風速南東 5m/s
14日21時 QYZT ~ 15日9時 QYZT に一時的に
視程3000m
天気現象もや
全天の4割程度の雲 雲底高度 150m
TAF UACC 140500Z 1406/1506 18004MPS 3000 BR BKN003 TXM08/1409Z TNM13/1501Z
TEMPO 1406/1409 0500 -SG FZFG VV002
FM140900 VRB02MPS 6000 SCT008 BKN020
TEMPO 1409/1415 3000 -SN BR BKN006
BECMG 1415/1417 14005MPS
TEMPO 1415/1503 3000 BR SCT005